Time;durP1;ratioP1;P1;durP2;ratioP2;P2;SDS_P1;SDS_P2;PMS_P1;PMS_P2;Temp;Humidity;BMP_temperature;BMP_pressure;BME280_temperature;BME280_humidity;BME280_pressure;Samples;Min_cycle;Max_cycle;Signal;HPM_P1;HPM_P2
2021/03/16 05:57:36;;;;;;;;;;;;;;;2.06;100.00;96497.21;1750683;78;20543;-69
2021/03/16 06:00:22;;;;;;;;;;;;;;;2.05;100.00;96498.22;1676756;83;20392;-70
2021/03/16 06:03:09;;;;;;;;;;;;;;;2.05;100.00;96489.94;1674759;84;20754;-62
2021/03/16 06:05:55;;;;;;;;;;;;;;;2.04;100.00;96492.25;1680893;83;20599;-67
2021/03/16 06:08:42;;;;;;;;;;;;;;;2.06;100.00;96490.23;1677640;83;21890;-65
2021/03/16 06:11:29;;;;;;;;;;;;;;;2.07;100.00;96494.41;1680826;83;20460;-67
2021/03/16 06:14:15;;;;;;;;;;;;;;;2.09;100.00;96498.84;1683521;83;20590;-70
2021/03/16 06:17:01;;;;;;;;;;;;;;;2.13;100.00;96501.80;1673831;83;20581;-68
2021/03/16 06:19:48;;;;;;;;;;;;;;;2.16;100.00;96497.48;1680563;83;20569;-67
2021/03/16 06:22:35;;;;;;;;;;;;;;;2.18;100.00;96498.81;1677443;83;20779;-66
2021/03/16 06:25:26;;;;;;;;;;;;;;;2.21;100.00;96510.05;1672007;83;20849;-64
2021/03/16 06:28:13;;;;;;;;;;;;;;;2.23;100.00;96509.30;1680499;83;20492;-73
2021/03/16 06:31:00;;;;;;;;;;;;;;;2.25;100.00;96511.17;1676296;83;20499;-69
2021/03/16 06:33:47;;;;;;;;;;;;;;;2.30;100.00;96513.12;1673495;83;20194;-66
2021/03/16 06:36:35;;;;;;;;;;;;;;;2.32;100.00;96523.53;1676009;83;21195;-66
2021/03/16 06:39:21;;;;;;;;;;;;;;;2.36;100.00;96526.48;1672405;83;20494;-69
2021/03/16 06:42:07;;;;;;;;;;;;;;;2.39;100.00;96527.31;1672994;83;20626;-68
2021/03/16 06:44:58;;;;;;;;;;;;;;;2.41;100.00;96535.67;1673928;83;20629;-64
2021/03/16 06:47:44;;;;;;;;;;;;;;;2.43;100.00;96528.47;1672888;83;20645;-68
2021/03/16 06:50:31;;;;;;;;;;;;;;;2.46;100.00;96533.19;1669253;83;22320;-61
2021/03/16 06:53:24;;;;;;;;;;;;;;;2.51;100.00;96537.73;1675151;83;20321;-70
2021/03/16 06:56:29;;;;;;;;;;;;;;;2.52;100.00;96547.86;1677531;83;20330;-69
2021/03/16 06:59:25;;;;;;;;;;;;;;;2.55;100.00;96540.14;1681485;82;20626;-67
2021/03/16 07:02:12;;;;;;;;;;;;;;;2.56;100.00;96550.30;1691157;82;20980;-68
2021/03/16 07:05:00;;;;;;;;;;;;;;;2.57;100.00;96544.11;1689316;82;22151;-74
2021/03/16 07:07:46;;;;;;;;;;;;;;;2.57;100.00;96548.00;1694984;82;20551;-65
2021/03/16 07:10:34;;;;;;;;;;;;;;;2.56;100.00;96545.63;1686251;83;20607;-70
2021/03/16 07:13:22;;;;;;;;;;;;;;;2.57;100.00;96544.11;1688599;82;20707;-68
2021/03/16 07:16:09;;;;;;;;;;;;;;;2.60;100.00;96554.02;1687111;82;20314;-65
2021/03/16 07:18:55;;;;;;;;;;;;;;;2.59;100.00;96549.88;1684875;82;20789;-61
2021/03/16 07:21:53;;;;;;;;;;;;;;;2.64;100.00;96547.89;1687112;82;20497;-61
2021/03/16 07:24:40;;;;;;;;;;;;;;;2.63;100.00;96549.69;1684656;82;20485;-62
2021/03/16 07:27:28;;;;;;;;;;;;;;;2.64;100.00;96539.61;1687828;82;20482;-62
2021/03/16 07:30:15;;;;;;;;;;;;;;;2.66;100.00;96549.77;1684511;82;20669;-70
2021/03/16 07:33:01;;;;;;;;;;;;;;;2.67;100.00;96552.11;1689616;82;21898;-70
2021/03/16 07:35:49;;;;;;;;;;;;;;;2.71;100.00;96549.38;1686034;82;20196;-66
2021/03/16 07:38:36;;;;;;;;;;;;;;;2.75;100.00;96540.11;1683613;82;20483;-71
2021/03/16 07:41:22;;;;;;;;;;;;;;;2.78;100.00;96536.29;1688762;82;20370;-68
2021/03/16 07:44:13;;;;;;;;;;;;;;;2.78;100.00;96534.99;1685943;82;21147;-74
2021/03/16 07:47:01;;;;;;;;;;;;;;;2.83;100.00;96547.28;1686014;82;22036;-71
2021/03/16 07:49:50;;;;;;;;;;;;;;;2.84;100.00;96535.38;1688460;82;20405;-68
2021/03/16 07:52:45;;;;;;;;;;;;;;;2.84;100.00;96543.17;1687272;82;20409;-68
2021/03/16 07:55:33;;;;;;;;;;;;;;;2.82;100.00;96532.72;1687370;82;20598;-70
2021/03/16 07:58:26;;;;;;;;;;;;;;;2.82;100.00;96534.81;1689511;82;21008;-65
2021/03/16 08:01:16;;;;;;;;;;;;;;;2.84;100.00;96530.20;1639273;84;40543;-68
2021/03/16 08:04:08;;;;;;;;;;;;;;;2.88;100.00;96552.60;1638254;84;20453;-72
2021/03/16 08:06:59;;;;;;;;;;;;;;;2.85;100.00;96551.23;1647446;84;20192;-70
2021/03/16 08:09:46;;;;;;;;;;;;;;;2.82;100.00;96558.67;1639079;84;20418;-66
2021/03/16 08:12:32;;;;;;;;;;;;;;;2.81;100.00;96561.77;1642104;84;20645;-69
2021/03/16 08:15:20;;;;;;;;;;;;;;;2.82;100.00;96556.86;1642121;84;21920;-69
2021/03/16 08:18:08;;;;;;;;;;;;;;;2.85;100.00;96555.13;1643847;84;20567;-72
2021/03/16 08:21:06;;;;;;;;;;;;;;;2.91;100.00;96541.25;1634446;84;20560;-71
2021/03/16 08:23:56;;;;;;;;;;;;;;;2.99;100.00;96544.81;1639343;84;21015;-69
2021/03/16 08:26:51;;;;;;;;;;;;;;;3.05;100.00;96556.09;1639780;84;20763;-69
2021/03/16 08:29:39;;;;;;;;;;;;;;;3.07;100.00;96560.55;1645113;86;21918;-68
2021/03/16 08:32:25;;;;;;;;;;;;;;;3.09;99.78;96572.30;1627111;84;20598;-71
2021/03/16 08:35:19;;;;;;;;;;;;;;;3.12;98.52;96576.23;1637119;85;20448;-70
2021/03/16 08:38:07;;;;;;;;;;;;;;;3.08;97.74;96575.12;1604605;86;20574;-71
2021/03/16 08:41:05;;;;;;;;;;;;;;;3.05;97.16;96572.96;1643671;84;20766;-73
2021/03/16 08:43:52;;;;;;;;;;;;;;;3.03;97.70;96578.87;1645854;84;22361;-69
2021/03/16 08:46:38;;;;;;;;;;;;;;;3.02;98.78;96576.81;1651472;84;20578;-72
2021/03/16 08:49:26;;;;;;;;;;;;;;;3.03;98.59;96580.97;1631039;85;20192;-68
2021/03/16 08:52:26;;;;;;;;;;;;;;;3.04;99.89;96583.84;1644808;84;20624;-74
2021/03/16 08:55:16;;;;;;;;;;;;;;;3.09;99.01;96579.30;1634193;86;20535;-68
2021/03/16 08:58:02;;;;;;;;;;;;;;;3.13;99.49;96584.30;1637961;85;22543;-71
2021/03/16 09:00:49;;;;;;;;;;;;;;;3.19;99.07;96595.08;1626785;84;20576;-76
2021/03/16 09:03:36;;;;;;;;;;;;;;;3.22;98.69;96600.34;1642032;86;20501;-68
2021/03/16 09:06:23;;;;;;;;;;;;;;;3.23;96.82;96606.61;1637628;86;20560;-72
2021/03/16 09:09:10;;;;;;;;;;;;;;;3.23;97.53;96608.41;1637335;85;21171;-68
2021/03/16 09:11:56;;;;;;;;;;;;;;;3.25;98.70;96605.86;1637024;85;21877;-71
2021/03/16 09:14:43;;;;;;;;;;;;;;;3.24;96.92;96615.98;1637683;86;20682;-68
2021/03/16 09:17:39;;;;;;;;;;;;;;;3.21;97.76;96610.44;1645545;85;21041;-67
2021/03/16 09:20:32;;;;;;;;;;;;;;;3.18;98.87;96617.37;1635100;85;20950;-64
2021/03/16 09:23:18;;;;;;;;;;;;;;;3.17;99.75;96614.52;1648051;85;20602;-67
2021/03/16 09:26:06;;;;;;;;;;;;;;;3.18;99.40;96607.77;1628072;85;22034;-69
2021/03/16 09:28:54;;;;;;;;;;;;;;;3.20;100.00;96608.85;1645845;85;20597;-66
2021/03/16 09:31:42;;;;;;;;;;;;;;;3.18;100.00;96614.27;1646004;85;20222;-67
2021/03/16 09:34:29;;;;;;;;;;;;;;;3.15;100.00;96612.14;1646837;85;20713;-67
2021/03/16 09:37:15;;;;;;;;;;;;;;;3.17;100.00;96609.32;1646845;85;20655;-67
2021/03/16 09:40:00;;;;;;;;;;;;;;;3.17;100.00;96602.83;1608021;88;22065;-69
2021/03/16 09:42:39;;;;;;;;;;;;;;;3.21;100.00;96609.14;1635262;86;20739;-68
2021/03/16 09:45:17;;;;;;;;;;;;;;;3.28;100.00;96609.81;1640533;85;20573;-65
2021/03/16 09:47:46;;;;;;;;;;;;;;;3.31;100.00;96619.77;1645521;85;20731;-70
2021/03/16 09:50:31;;;;;;;;;;;;;;;3.34;100.00;96624.48;1644973;85;20685;-67
2021/03/16 09:53:03;;;;;;;;;;;;;;;3.35;100.00;96625.56;1646304;86;21372;-74
2021/03/16 09:55:31;;;;;;;;;;;;;;;3.40;100.00;96628.77;1644098;85;20591;-69
2021/03/16 09:57:59;;;;;;;;;;;;;;;3.41;100.00;96625.95;1644366;85;20608;-68
2021/03/16 10:00:28;;;;;;;;;;;;;;;3.41;100.00;96629.06;1643494;85;20524;-66
2021/03/16 10:03:06;;;;;;;;;;;;;;;3.45;100.00;96625.02;1668006;84;20582;-68
2021/03/16 10:05:37;;;;;;;;;;;;;;;3.48;100.00;96620.14;1678171;83;22300;-69
2021/03/16 10:08:09;;;;;;;;;;;;;;;3.53;100.00;96620.74;1677500;83;20500;-68
2021/03/16 10:10:39;;;;;;;;;;;;;;;3.56;100.00;96615.61;1672753;83;20131;-70
2021/03/16 10:13:07;;;;;;;;;;;;;;;3.61;100.00;96616.50;1666332;85;20679;-67
2021/03/16 10:15:37;;;;;;;;;;;;;;;3.67;100.00;96614.83;1666355;85;20774;-68
2021/03/16 10:18:11;;;;;;;;;;;;;;;3.65;100.00;96612.45;1667421;84;22305;-72
2021/03/16 10:20:45;;;;;;;;;;;;;;;3.68;100.00;96615.88;1671483;83;20202;-69
2021/03/16 10:23:19;;;;;;;;;;;;;;;3.74;100.00;96616.28;1676816;83;20204;-69
2021/03/16 10:25:55;;;;;;;;;;;;;;;3.80;100.00;96625.76;1669683;84;20731;-70
2021/03/16 10:28:41;;;;;;;;;;;;;;;3.85;100.00;96637.55;1675116;83;20788;-67
2021/03/16 10:31:20;;;;;;;;;;;;;;;3.93;100.00;96637.20;1675061;83;22023;-68
2021/03/16 10:33:51;;;;;;;;;;;;;;;3.98;100.00;96629.20;1666409;83;20549;-68
2021/03/16 10:36:23;;;;;;;;;;;;;;;4.01;100.00;96634.75;1678907;83;20686;-71
2021/03/16 10:38:51;;;;;;;;;;;;;;;4.03;99.75;96648.83;1678401;83;20482;-68
2021/03/16 10:41:19;;;;;;;;;;;;;;;3.89;99.37;96645.69;1676767;83;20767;-70
2021/03/16 10:43:47;;;;;;;;;;;;;;;3.83;100.00;96645.28;1671504;83;21452;-64
2021/03/16 10:46:15;;;;;;;;;;;;;;;3.85;100.00;96648.45;1674551;83;20714;-60
2021/03/16 10:48:44;;;;;;;;;;;;;;;3.89;100.00;96641.80;1671716;85;20547;-61
2021/03/16 10:51:12;;;;;;;;;;;;;;;3.93;100.00;96648.89;1672913;83;20727;-67
2021/03/16 10:53:39;;;;;;;;;;;;;;;3.94;100.00;96648.38;1674154;83;20933;-71
2021/03/16 10:56:08;;;;;;;;;;;;;;;3.99;100.00;96652.38;1672146;83;21399;-68
2021/03/16 10:58:36;;;;;;;;;;;;;;;4.06;100.00;96661.34;1669440;84;20467;-69
2021/03/16 11:01:04;;;;;;;;;;;;;;;4.06;98.63;96658.75;1676419;83;20154;-68
2021/03/16 11:03:35;;;;;;;;;;;;;;;4.03;97.88;96644.42;1677289;83;20923;-72
2021/03/16 11:06:05;;;;;;;;;;;;;;;4.03;98.64;96638.42;1683967;84;20587;-67
2021/03/16 11:08:33;;;;;;;;;;;;;;;4.02;97.06;96635.03;1675495;83;22080;-67
2021/03/16 11:11:01;;;;;;;;;;;;;;;4.01;96.70;96634.75;1675901;83;20634;-68
2021/03/16 11:13:29;;;;;;;;;;;;;;;3.97;95.36;96625.81;1676789;84;20495;-66
2021/03/16 11:15:58;;;;;;;;;;;;;;;3.93;95.39;96632.50;1677404;83;20548;-68
2021/03/16 11:18:27;;;;;;;;;;;;;;;3.90;96.02;96627.75;1675320;83;20570;-69
2021/03/16 11:20:55;;;;;;;;;;;;;;;3.84;95.00;96629.97;1675545;83;21923;-69
2021/03/16 11:23:23;;;;;;;;;;;;;;;3.85;95.38;96635.45;1674141;83;20435;-68
2021/03/16 11:25:51;;;;;;;;;;;;;;;3.86;95.99;96633.94;1676487;83;20496;-71
2021/03/16 11:28:19;;;;;;;;;;;;;;;3.83;95.15;96632.28;1677166;84;20470;-68
2021/03/16 11:30:47;;;;;;;;;;;;;;;3.81;96.10;96631.23;1674827;83;20574;-68
2021/03/16 11:33:15;;;;;;;;;;;;;;;3.83;95.37;96636.19;1680781;83;21346;-68
2021/03/16 11:36:01;;;;;;;;;;;;;;;3.88;96.41;96624.61;1677674;83;20368;-64
2021/03/16 11:38:48;;;;;;;;;;;;;;;3.91;95.96;96625.44;1680306;84;20239;-68
2021/03/16 11:41:35;;;;;;;;;;;;;;;3.91;94.69;96632.73;1677895;83;20623;-64
2021/03/16 11:44:21;;;;;;;;;;;;;;;3.88;94.85;96624.11;1676419;84;20605;-68
2021/03/16 11:47:07;;;;;;;;;;;;;;;3.90;95.56;96637.64;1672463;83;21772;-66
2021/03/16 11:49:54;;;;;;;;;;;;;;;3.96;95.69;96634.66;1677799;83;20344;-66
2021/03/16 11:52:40;;;;;;;;;;;;;;;4.03;95.46;96634.52;1674673;83;20402;-67
2021/03/16 11:55:26;;;;;;;;;;;;;;;4.04;94.34;96640.77;1675603;84;20531;-64
2021/03/16 11:58:12;;;;;;;;;;;;;;;4.05;93.95;96633.77;1686276;83;20722;-66
2021/03/16 12:00:58;;;;;;;;;;;;;;;4.07;93.48;96646.83;1676903;83;21937;-68
2021/03/16 12:03:51;;;;;;;;;;;;;;;4.02;92.68;96638.14;1747040;80;21611;-68
2021/03/16 12:06:38;;;;;;;;;;;;;;;4.00;93.21;96627.97;1738053;80;20400;-67
2021/03/16 12:09:25;;;;;;;;;;;;;;;3.98;93.18;96624.80;1744583;80;20513;-69
2021/03/16 12:12:12;;;;;;;;;;;;;;;3.98;92.42;96635.70;1737818;80;20483;-69
2021/03/16 12:14:58;;;;;;;;;;;;;;;4.01;93.91;96637.86;1739048;80;22054;-72
2021/03/16 12:17:45;;;;;;;;;;;;;;;4.01;92.03;96644.36;1721353;82;20499;-73
2021/03/16 12:20:31;;;;;;;;;;;;;;;3.96;92.47;96635.16;1680813;83;20413;-76
2021/03/16 12:23:18;;;;;;;;;;;;;;;3.88;94.07;96635.80;1699238;82;20976;-69
2021/03/16 12:26:04;;;;;;;;;;;;;;;3.82;93.80;96643.70;1718877;81;20549;-70
2021/03/16 12:28:50;;;;;;;;;;;;;;;3.79;95.47;96652.76;1716163;80;21971;-70
2021/03/16 12:31:38;;;;;;;;;;;;;;;3.81;95.82;96652.03;1701915;82;20425;-67
2021/03/16 12:34:25;;;;;;;;;;;;;;;3.78;95.57;96653.77;1699402;82;20596;-69
2021/03/16 12:37:14;;;;;;;;;;;;;;;3.75;95.43;96650.32;1682705;83;20628;-71
2021/03/16 12:40:03;;;;;;;;;;;;;;;3.73;94.96;96650.28;1684959;83;20785;-69
2021/03/16 12:42:49;;;;;;;;;;;;;;;3.70;95.79;96667.61;1700762;82;21878;-69
2021/03/16 12:45:35;;;;;;;;;;;;;;;3.64;96.55;96659.44;1694682;83;20431;-70
2021/03/16 12:48:21;;;;;;;;;;;;;;;3.54;96.93;96660.78;1721587;82;20400;-73
2021/03/16 12:51:08;;;;;;;;;;;;;;;3.49;97.67;96659.38;1724825;82;20496;-69
2021/03/16 12:53:55;;;;;;;;;;;;;;;3.45;99.59;96661.38;1704049;82;20621;-69
2021/03/16 12:56:41;;;;;;;;;;;;;;;3.41;100.00;96662.82;1711006;82;21891;-71
2021/03/16 12:59:27;;;;;;;;;;;;;;;3.34;100.00;96656.95;1703501;82;20458;-71
2021/03/16 13:02:14;;;;;;;;;;;;;;;3.30;100.00;96655.33;1660899;83;20425;-70
2021/03/16 13:05:02;;;;;;;;;;;;;;;3.29;100.00;96660.73;1670155;82;20417;-66
2021/03/16 13:07:48;;;;;;;;;;;;;;;3.24;100.00;96678.80;1663893;83;20645;-70
2021/03/16 13:10:35;;;;;;;;;;;;;;;3.13;100.00;96669.97;1640800;84;21653;-66
2021/03/16 13:13:22;;;;;;;;;;;;;;;3.05;100.00;96684.56;1676476;83;20749;-73
2021/03/16 13:16:08;;;;;;;;;;;;;;;2.99;100.00;96671.98;1667642;84;20405;-71
2021/03/16 13:18:57;;;;;;;;;;;;;;;2.94;100.00;96671.87;1675839;83;20813;-64
2021/03/16 13:21:45;;;;;;;;;;;;;;;2.87;100.00;96669.87;1661630;84;20501;-65
2021/03/16 13:24:31;;;;;;;;;;;;;;;2.84;100.00;96676.00;1672698;84;22325;-68
2021/03/16 13:27:17;;;;;;;;;;;;;;;2.81;100.00;96674.62;1658864;83;20342;-69
2021/03/16 13:30:05;;;;;;;;;;;;;;;2.82;100.00;96674.12;1650706;84;20170;-71
2021/03/16 13:32:51;;;;;;;;;;;;;;;2.81;100.00;96679.82;1653879;84;20723;-69
2021/03/16 13:35:39;;;;;;;;;;;;;;;2.85;100.00;96684.08;1666288;84;20718;-66
2021/03/16 13:38:29;;;;;;;;;;;;;;;2.89;100.00;96687.29;1674846;82;20790;-70
2021/03/16 13:41:15;;;;;;;;;;;;;;;2.89;100.00;96678.21;1685721;83;20499;-68
2021/03/16 13:44:03;;;;;;;;;;;;;;;2.86;100.00;96686.45;1613578;87;20409;-67
2021/03/16 13:46:50;;;;;;;;;;;;;;;2.87;100.00;96683.36;1634610;86;20580;-68
2021/03/16 13:49:37;;;;;;;;;;;;;;;2.87;100.00;96691.14;1650247;84;20633;-65
2021/03/16 13:52:23;;;;;;;;;;;;;;;2.86;100.00;96699.94;1658594;83;21943;-65
2021/03/16 13:55:11;;;;;;;;;;;;;;;2.84;100.00;96696.76;1633954;84;20694;-71
2021/03/16 13:57:57;;;;;;;;;;;;;;;2.82;100.00;96698.27;1658073;83;20264;-69
2021/03/16 14:00:43;;;;;;;;;;;;;;;2.78;100.00;96701.03;1631192;86;20585;-64
2021/03/16 14:03:31;;;;;;;;;;;;;;;2.73;100.00;96695.72;1656354;84;20960;-66
2021/03/16 14:06:19;;;;;;;;;;;;;;;2.73;100.00;96704.80;1691596;83;21698;-66
2021/03/16 14:09:06;;;;;;;;;;;;;;;2.72;100.00;96698.03;1674413;83;20544;-68
2021/03/16 14:11:52;;;;;;;;;;;;;;;2.71;100.00;96712.80;1685421;83;20587;-66
2021/03/16 14:14:39;;;;;;;;;;;;;;;2.71;100.00;96703.72;1687438;83;20702;-67
2021/03/16 14:17:27;;;;;;;;;;;;;;;2.69;100.00;96712.73;1672125;83;20506;-68
2021/03/16 14:20:14;;;;;;;;;;;;;;;2.67;100.00;96711.64;1671897;83;21985;-69
2021/03/16 14:23:01;;;;;;;;;;;;;;;2.65;100.00;96710.30;1684350;81;20378;-68
2021/03/16 14:25:47;;;;;;;;;;;;;;;2.64;100.00;96717.79;1682480;81;20648;-68
2021/03/16 14:28:34;;;;;;;;;;;;;;;2.63;100.00;96722.19;1666010;83;20285;-70
2021/03/16 14:31:22;;;;;;;;;;;;;;;2.63;100.00;96726.08;1666936;85;20549;-69
2021/03/16 14:34:09;;;;;;;;;;;;;;;2.66;100.00;96726.15;1636169;85;21830;-66
2021/03/16 14:36:56;;;;;;;;;;;;;;;2.66;100.00;96724.86;1650385;85;20665;-68
2021/03/16 14:39:42;;;;;;;;;;;;;;;2.67;100.00;96729.00;1619751;86;20148;-66
2021/03/16 14:42:28;;;;;;;;;;;;;;;2.68;100.00;96729.30;1675349;82;20590;-67
2021/03/16 14:45:14;;;;;;;;;;;;;;;2.70;100.00;96733.77;1674033;82;20684;-67
2021/03/16 14:48:01;;;;;;;;;;;;;;;2.72;100.00;96723.97;1679395;83;22144;-66
2021/03/16 14:50:49;;;;;;;;;;;;;;;2.72;100.00;96722.67;1671801;83;20344;-62
2021/03/16 14:53:35;;;;;;;;;;;;;;;2.73;100.00;96722.97;1663103;83;20580;-68
2021/03/16 14:56:22;;;;;;;;;;;;;;;2.74;100.00;96729.71;1664775;84;20580;-71
2021/03/16 14:59:09;;;;;;;;;;;;;;;2.75;100.00;96736.48;1662630;84;20590;-71
2021/03/16 15:01:56;;;;;;;;;;;;;;;2.74;100.00;96731.01;1674434;83;21902;-65
